createdAt,value
2022-11-28T00:01:44.267Z,50.63
2022-11-28T00:04:13.121Z,50.92
2022-11-28T00:06:45.909Z,50.74
2022-11-28T00:09:14.890Z,50.59
2022-11-28T00:11:45.138Z,50.64
2022-11-28T00:14:13.587Z,50.87
2022-11-28T00:16:42.087Z,50.62
2022-11-28T00:19:12.141Z,50.92
2022-11-28T00:21:40.621Z,50.64
2022-11-28T00:24:09.795Z,50.76
2022-11-28T00:26:42.300Z,50.93
2022-11-28T00:29:11.405Z,50.66
2022-11-28T00:31:42.765Z,50.86
2022-11-28T00:34:15.173Z,50.82
2022-11-28T00:36:47.543Z,50.57
2022-11-28T00:39:16.918Z,50.73
2022-11-28T00:41:45.653Z,50.57
2022-11-28T00:44:14.265Z,50.62
2022-11-28T00:46:42.844Z,50.59
2022-11-28T00:49:10.681Z,50.28
2022-11-28T00:51:39.270Z,50.47
2022-11-28T00:54:07.590Z,50.17
2022-11-28T00:56:38.915Z,50.40
2022-11-28T00:59:07.614Z,50.59
2022-11-28T01:01:41.557Z,50.31
2022-11-28T01:04:12.425Z,50.39
2022-11-28T01:06:48.499Z,50.48
2022-11-28T01:09:23.131Z,50.42
2022-11-28T01:11:53.555Z,50.85
2022-11-28T01:14:26.318Z,51.02
2022-11-28T01:16:54.393Z,50.90
2022-11-28T01:19:22.213Z,50.78
2022-11-28T01:21:50.291Z,51.01
2022-11-28T01:24:18.555Z,50.71
2022-11-28T01:26:46.446Z,50.87
2022-11-28T01:29:14.411Z,50.96
2022-11-28T01:31:42.411Z,51.08
2022-11-28T01:34:10.282Z,51.05
2022-11-28T01:36:38.203Z,51.09
2022-11-28T01:39:06.940Z,51.16
2022-11-28T01:41:34.785Z,50.99
2022-11-28T01:44:27.890Z,51.05
2022-11-28T01:46:56.609Z,51.03
2022-11-28T01:49:33.809Z,51.22
2022-11-28T01:52:13.217Z,51.10
2022-11-28T01:54:44.972Z,51.10
2022-11-28T01:57:20.048Z,51.21
2022-11-28T02:00:13.152Z,51.10
2022-11-28T02:03:06.408Z,51.13
2022-11-28T02:05:34.250Z,51.01
2022-11-28T02:08:03.323Z,51.30
2022-11-28T02:10:52.855Z,51.15
2022-11-28T02:13:41.292Z,51.26
2022-11-28T02:16:39.163Z,51.30
2022-11-28T02:19:31.708Z,51.42
2022-11-28T02:22:16.952Z,51.46
2022-11-28T02:25:01.497Z,51.72
2022-11-28T02:28:00.341Z,51.20
2022-11-28T02:30:56.529Z,51.24
2022-11-28T02:33:43.332Z,51.13
2022-11-28T02:36:29.648Z,51.10
2022-11-28T02:39:09.815Z,51.13
2022-11-28T02:41:58.541Z,51.01
2022-11-28T02:44:43.580Z,51.18
2022-11-28T02:47:23.574Z,51.16
2022-11-28T02:50:08.773Z,51.14
2022-11-28T02:52:46.028Z,50.95
2022-11-28T02:55:16.238Z,51.22
2022-11-28T02:57:51.434Z,51.02
2022-11-28T03:00:33.035Z,51.19
2022-11-28T03:03:12.425Z,50.98
2022-11-28T03:05:51.592Z,50.90
2022-11-28T03:08:28.335Z,50.98
2022-11-28T03:11:23.020Z,51.10
2022-11-28T03:14:04.343Z,50.94
2022-11-28T03:17:18.340Z,50.72
2022-11-28T03:20:06.359Z,50.80
2022-11-28T03:22:57.326Z,50.64
2022-11-28T03:25:47.944Z,51.06
2022-11-28T03:28:45.335Z,51.04
2022-11-28T03:31:20.532Z,50.97
2022-11-28T03:33:54.113Z,51.24
2022-11-28T03:36:50.681Z,51.00
2022-11-28T03:39:24.081Z,51.07
2022-11-28T03:42:02.663Z,51.18
2022-11-28T03:45:04.626Z,51.17
2022-11-28T03:47:40.417Z,50.79
2022-11-28T03:50:26.057Z,50.94
2022-11-28T03:53:02.262Z,50.88
2022-11-28T03:56:14.012Z,51.04
2022-11-28T03:59:04.157Z,51.03
2022-11-28T04:02:13.393Z,51.03
2022-11-28T04:04:53.069Z,51.16
2022-11-28T04:07:51.316Z,51.40
2022-11-28T04:10:48.554Z,51.33
2022-11-28T04:13:37.045Z,51.22
2022-11-28T04:16:53.579Z,51.14
2022-11-28T04:19:33.966Z,51.02
2022-11-28T04:22:18.811Z,51.08
2022-11-28T04:24:56.018Z,51.10
2022-11-28T04:27:33.436Z,51.19
2022-11-28T04:30:04.849Z,50.98
2022-11-28T04:32:36.387Z,51.13
2022-11-28T04:35:12.856Z,51.42
2022-11-28T04:37:44.816Z,51.30
2022-11-28T04:40:13.827Z,51.44
2022-11-28T04:42:53.114Z,51.31
2022-11-28T04:45:37.787Z,51.19
2022-11-28T04:48:07.252Z,51.16
2022-11-28T04:50:59.902Z,51.23
2022-11-28T04:54:00.181Z,51.48
2022-11-28T04:57:06.690Z,51.54
2022-11-28T04:59:34.655Z,51.26
2022-11-28T05:02:05.113Z,51.37
2022-11-28T05:04:36.960Z,51.36
2022-11-28T05:07:08.103Z,51.55
2022-11-28T05:09:36.452Z,51.59
2022-11-28T05:12:04.904Z,51.66
2022-11-28T05:14:32.832Z,52.04
2022-11-28T05:17:00.612Z,52.19
2022-11-28T05:19:28.334Z,51.88
2022-11-28T05:21:56.193Z,51.99
2022-11-28T05:24:27.952Z,51.97
2022-11-28T05:26:58.580Z,52.28
2022-11-28T05:29:26.380Z,52.73
2022-11-28T05:31:54.223Z,53.00
2022-11-28T05:34:22.320Z,52.48
2022-11-28T05:36:50.129Z,52.53
2022-11-28T05:39:18.017Z,52.77
2022-11-28T05:41:45.788Z,52.52
2022-11-28T05:44:13.514Z,52.56
2022-11-28T05:46:41.338Z,52.70
2022-11-28T05:49:09.269Z,52.50
2022-11-28T05:51:37.047Z,52.35
2022-11-28T05:54:06.817Z,52.37
2022-11-28T05:56:39.425Z,52.25
2022-11-28T05:59:09.976Z,52.21
2022-11-28T06:01:37.765Z,52.40
2022-11-28T06:04:05.574Z,52.42
2022-11-28T06:06:37.203Z,52.59
2022-11-28T06:09:06.204Z,52.63
2022-11-28T06:11:35.629Z,52.41
2022-11-28T06:14:03.871Z,52.31
2022-11-28T06:16:31.966Z,52.54
2022-11-28T06:19:03.651Z,52.46
2022-11-28T06:21:32.849Z,52.39
2022-11-28T06:24:00.948Z,52.35
2022-11-28T06:26:29.741Z,52.50
2022-11-28T06:28:58.129Z,52.54
2022-11-28T06:31:29.992Z,52.62
2022-11-28T06:33:58.887Z,52.68
2022-11-28T06:36:27.553Z,52.70
2022-11-28T06:38:55.335Z,52.46
2022-11-28T06:41:23.418Z,52.55
2022-11-28T06:43:51.196Z,52.75
2022-11-28T06:46:21.298Z,52.81
2022-11-28T06:48:51.757Z,52.75
2022-11-28T06:51:20.288Z,52.56
2022-11-28T06:53:48.675Z,52.68
2022-11-28T06:56:19.617Z,52.80
2022-11-28T06:58:53.255Z,52.52
2022-11-28T07:01:23.175Z,52.43
2022-11-28T07:03:51.841Z,52.32
2022-11-28T07:06:20.600Z,52.42
2022-11-28T07:08:50.324Z,52.26
2022-11-28T07:11:27.156Z,52.02
2022-11-28T07:13:56.144Z,52.14
2022-11-28T07:16:26.520Z,52.18
2022-11-28T07:18:55.603Z,52.09
2022-11-28T07:21:24.129Z,52.12
2022-11-28T07:23:52.125Z,52.35
2022-11-28T07:26:21.823Z,52.18
2022-11-28T07:28:51.339Z,52.24
2022-11-28T07:31:31.772Z,52.27
2022-11-28T07:34:03.661Z,52.03
2022-11-28T07:36:32.447Z,52.12
2022-11-28T07:39:03.048Z,51.89
2022-11-28T07:41:30.818Z,51.81
2022-11-28T07:44:01.723Z,51.80
2022-11-28T07:46:31.728Z,51.88
2022-11-28T07:48:59.923Z,51.89
2022-11-28T07:51:32.328Z,51.95
2022-11-28T07:54:01.599Z,51.95
2022-11-28T07:59:21.918Z,52.00
2022-11-28T08:01:49.825Z,52.17
2022-11-28T08:04:17.717Z,52.18
2022-11-28T08:06:45.580Z,51.95
2022-11-28T08:09:13.654Z,52.07
2022-11-28T08:11:41.901Z,51.99
2022-11-28T08:14:09.738Z,51.71
2022-11-28T08:16:41.272Z,51.64
2022-11-28T08:19:09.139Z,51.71
2022-11-28T08:21:37.467Z,51.79
2022-11-28T08:24:07.865Z,51.83
2022-11-28T08:26:36.760Z,51.77
2022-11-28T08:29:04.931Z,51.72
2022-11-28T08:31:36.789Z,51.88
2022-11-28T08:34:09.730Z,51.54
2022-11-28T08:36:37.781Z,51.71
2022-11-28T08:39:23.347Z,51.49
2022-11-28T08:41:54.282Z,51.32
2022-11-28T08:44:22.050Z,51.76
2022-11-28T08:46:49.804Z,51.62
2022-11-28T08:49:17.581Z,52.09
2022-11-28T08:51:45.759Z,51.84
2022-11-28T08:54:13.588Z,51.75
2022-11-28T08:56:41.431Z,51.60
2022-11-28T08:59:10.042Z,51.72
2022-11-28T09:01:39.574Z,51.77
2022-11-28T09:04:07.573Z,51.63
2022-11-28T09:06:36.754Z,51.46
2022-11-28T09:09:04.563Z,51.09
2022-11-28T09:11:33.828Z,51.13
2022-11-28T09:14:01.655Z,50.83
2022-11-28T09:16:29.700Z,51.12
2022-11-28T09:18:59.124Z,51.34
2022-11-28T09:21:27.060Z,50.77
2022-11-28T09:23:56.261Z,51.51
2022-11-28T09:26:25.851Z,51.14
2022-11-28T09:28:54.055Z,51.10
2022-11-28T09:31:22.787Z,51.00
2022-11-28T09:33:50.772Z,51.06
2022-11-28T09:36:21.970Z,51.25
2022-11-28T09:38:50.915Z,51.47
2022-11-28T09:41:39.906Z,51.56
2022-11-28T09:44:25.273Z,51.40
2022-11-28T09:46:58.558Z,51.44
2022-11-28T09:49:56.208Z,51.46
2022-11-28T09:52:57.818Z,50.58
2022-11-28T09:55:43.514Z,50.32
2022-11-28T09:58:33.531Z,50.47
2022-11-28T10:01:19.756Z,50.53
2022-11-28T10:04:25.398Z,50.78
2022-11-28T10:06:58.833Z,50.59
2022-11-28T10:09:43.157Z,50.51
2022-11-28T10:12:52.957Z,50.82
2022-11-28T10:15:42.047Z,50.22
2022-11-28T10:18:30.865Z,50.11
2022-11-28T10:21:10.291Z,49.68
2022-11-28T10:23:45.707Z,50.18
2022-11-28T10:26:36.204Z,50.13
2022-11-28T10:29:29.451Z,50.30
2022-11-28T10:32:03.839Z,50.40
2022-11-28T10:34:32.970Z,50.13
2022-11-28T10:37:31.052Z,50.58
2022-11-28T10:40:20.914Z,50.57
2022-11-28T10:43:30.641Z,50.46
2022-11-28T10:46:30.148Z,50.60
2022-11-28T10:49:24.371Z,50.71
2022-11-28T10:52:04.136Z,50.82
2022-11-28T10:54:56.918Z,51.07
2022-11-28T10:57:52.478Z,51.39
2022-11-28T11:00:20.985Z,51.25
2022-11-28T11:02:57.908Z,51.03
2022-11-28T11:05:28.433Z,50.91
2022-11-28T11:08:20.139Z,51.35
2022-11-28T11:11:13.680Z,51.16
2022-11-28T11:14:01.592Z,51.39
2022-11-28T11:16:58.632Z,51.81
2022-11-28T11:19:34.068Z,51.42
2022-11-28T11:22:28.359Z,51.67
2022-11-28T11:25:31.387Z,51.39
2022-11-28T11:28:03.565Z,51.92
2022-11-28T11:30:38.697Z,51.80
2022-11-28T11:33:13.938Z,51.66
2022-11-28T11:35:48.817Z,52.04
2022-11-28T11:38:37.818Z,51.52
2022-11-28T11:41:30.481Z,51.92
2022-11-28T11:44:34.519Z,52.07
2022-11-28T11:47:07.535Z,52.22
2022-11-28T11:49:48.558Z,52.17
2022-11-28T11:52:24.344Z,52.23
2022-11-28T11:55:01.348Z,52.15
2022-11-28T11:57:43.184Z,52.23
2022-11-28T12:00:19.520Z,52.69
2022-11-28T12:02:53.674Z,52.50
2022-11-28T12:05:38.221Z,52.41
2022-11-28T12:08:52.624Z,52.34
2022-11-28T12:11:29.733Z,52.34
2022-11-28T12:14:35.585Z,52.16
2022-11-28T12:17:25.637Z,52.51
2022-11-28T12:20:22.235Z,52.47
2022-11-28T12:23:02.415Z,52.48
2022-11-28T12:25:35.720Z,52.24
2022-11-28T12:28:45.891Z,52.35
2022-11-28T12:31:46.379Z,52.54
2022-11-28T12:34:37.655Z,52.66
2022-11-28T12:38:11.428Z,52.35
2022-11-28T12:41:09.396Z,52.78
2022-11-28T12:43:55.419Z,52.66
2022-11-28T12:46:51.038Z,52.71
2022-11-28T12:49:52.200Z,52.71
2022-11-28T12:52:56.603Z,52.90
2022-11-28T12:55:54.165Z,52.76
2022-11-28T12:58:39.306Z,52.83
2022-11-28T13:01:45.170Z,53.00
2022-11-28T13:04:44.016Z,53.04
2022-11-28T13:07:54.877Z,52.82
2022-11-28T13:10:50.649Z,52.88
2022-11-28T13:13:25.719Z,52.80
2022-11-28T13:16:04.114Z,53.05
2022-11-28T13:18:40.083Z,52.65
2022-11-28T13:21:31.500Z,53.00
2022-11-28T13:24:31.988Z,52.88
2022-11-28T13:27:58.724Z,52.79
2022-11-28T13:30:31.298Z,52.85
2022-11-28T13:33:29.601Z,52.65
2022-11-28T13:35:59.987Z,52.98
2022-11-28T13:39:11.630Z,52.99
2022-11-28T13:42:43.854Z,53.05
2022-11-28T13:45:22.800Z,53.00
2022-11-28T13:47:55.757Z,52.91
2022-11-28T13:50:23.517Z,53.18
2022-11-28T13:53:12.637Z,53.16
2022-11-28T13:55:46.770Z,53.11
2022-11-28T13:58:33.104Z,52.86
2022-11-28T14:01:11.865Z,52.96
2022-11-28T14:03:57.933Z,52.70
2022-11-28T14:06:28.343Z,53.39
2022-11-28T14:09:44.816Z,53.19
2022-11-28T14:12:21.798Z,53.02
2022-11-28T14:15:02.730Z,52.94
2022-11-28T14:17:51.362Z,53.07
2022-11-28T14:20:40.307Z,53.15
2022-11-28T14:23:47.241Z,53.13
2022-11-28T14:26:34.815Z,53.17
2022-11-28T14:29:07.351Z,53.29
2022-11-28T14:31:39.947Z,53.14
2022-11-28T14:34:48.716Z,53.11
2022-11-28T14:37:27.475Z,53.59
2022-11-28T14:39:57.554Z,53.51
2022-11-28T14:42:58.376Z,53.71
2022-11-28T14:45:44.918Z,53.41
2022-11-28T14:48:21.905Z,53.49
2022-11-28T14:51:00.957Z,53.68
2022-11-28T14:53:48.849Z,53.59
2022-11-28T14:56:16.478Z,53.83
2022-11-28T14:58:55.209Z,53.90
2022-11-28T15:02:16.089Z,53.82
2022-11-28T15:05:21.069Z,53.94
2022-11-28T15:08:05.086Z,53.71
2022-11-28T15:11:07.279Z,53.81
2022-11-28T15:13:58.654Z,54.20
2022-11-28T15:16:31.605Z,54.68
2022-11-28T15:19:07.179Z,54.70
2022-11-28T15:21:47.386Z,54.48
2022-11-28T15:24:29.784Z,54.62
2022-11-28T15:27:07.865Z,54.49
2022-11-28T15:29:36.938Z,54.52
2022-11-28T15:32:05.726Z,54.65
2022-11-28T15:34:37.862Z,54.91
2022-11-28T15:37:16.555Z,54.98
2022-11-28T15:39:49.251Z,54.61
2022-11-28T15:42:33.132Z,54.82
2022-11-28T15:45:16.486Z,54.74
2022-11-28T15:47:46.726Z,54.86
2022-11-28T15:50:28.490Z,55.18
2022-11-28T15:53:18.491Z,54.80
2022-11-28T15:55:46.968Z,55.17
2022-11-28T15:58:31.270Z,54.78
2022-11-28T16:01:08.526Z,54.90
2022-11-28T16:04:07.461Z,55.24
2022-11-28T16:06:38.888Z,55.39
2022-11-28T16:09:20.129Z,55.16
2022-11-28T16:11:53.622Z,55.57
2022-11-28T16:14:42.823Z,55.31
2022-11-28T16:17:31.781Z,55.46
2022-11-28T16:20:01.779Z,55.34
2022-11-28T16:22:38.651Z,55.44
2022-11-28T16:25:24.739Z,55.32
2022-11-28T16:27:53.403Z,55.80
2022-11-28T16:30:37.245Z,55.71
2022-11-28T16:33:37.333Z,55.27
2022-11-28T16:36:23.393Z,55.81
2022-11-28T16:39:03.524Z,55.73
2022-11-28T16:41:32.195Z,55.84
2022-11-28T16:44:05.269Z,56.16
2022-11-28T16:46:39.274Z,56.30
2022-11-28T16:49:19.414Z,55.68
2022-11-28T16:51:47.798Z,55.88
2022-11-28T16:54:32.142Z,55.89
2022-11-28T16:57:16.870Z,56.24
2022-11-28T16:59:45.694Z,56.44
2022-11-28T17:02:23.208Z,56.52
2022-11-28T17:04:52.849Z,56.43
2022-11-28T17:07:23.932Z,56.87
2022-11-28T17:09:51.733Z,56.83
2022-11-28T17:12:24.940Z,56.71
2022-11-28T17:14:53.588Z,56.80
2022-11-28T17:17:25.872Z,56.90
2022-11-28T17:19:53.699Z,56.67
2022-11-28T17:22:40.442Z,57.00
2022-11-28T17:25:19.239Z,56.66
2022-11-28T17:27:48.350Z,56.69
2022-11-28T17:30:19.153Z,56.77
2022-11-28T17:32:51.967Z,56.73
2022-11-28T17:35:24.458Z,56.57
2022-11-28T17:37:52.223Z,56.66
2022-11-28T17:40:49.228Z,56.81
2022-11-28T17:43:21.823Z,56.72
2022-11-28T17:45:50.787Z,56.71
2022-11-28T17:48:19.606Z,56.77
2022-11-28T17:50:49.582Z,56.94
2022-11-28T17:53:20.213Z,57.04
2022-11-28T17:55:52.168Z,56.91
2022-11-28T17:58:26.672Z,57.04
2022-11-28T18:01:00.410Z,57.15
2022-11-28T18:03:30.071Z,57.08
2022-11-28T18:05:57.875Z,57.22
2022-11-28T18:08:25.987Z,57.26
2022-11-28T18:11:10.038Z,56.94
2022-11-28T18:13:42.415Z,57.38
2022-11-28T18:16:12.385Z,57.18
2022-11-28T18:18:40.661Z,57.74
2022-11-28T18:21:10.697Z,57.60
2022-11-28T18:23:41.089Z,57.54
2022-11-28T18:26:18.310Z,57.80
2022-11-28T18:28:47.298Z,57.49
2022-11-28T18:31:19.782Z,57.39
2022-11-28T18:33:47.995Z,57.25
2022-11-28T18:36:25.255Z,57.21
2022-11-28T18:39:15.827Z,57.54
2022-11-28T18:41:45.480Z,57.50
2022-11-28T18:44:13.313Z,58.05
2022-11-28T18:46:41.178Z,57.62
2022-11-28T18:49:12.422Z,57.84
2022-11-28T18:51:40.250Z,58.24
2022-11-28T18:54:10.156Z,57.91
2022-11-28T18:56:37.982Z,57.87
2022-11-28T18:59:06.719Z,57.80
2022-11-28T19:01:35.639Z,58.26
2022-11-28T19:04:12.082Z,58.32
2022-11-28T19:06:41.163Z,58.17
2022-11-28T19:09:13.137Z,58.08
2022-11-28T19:11:41.963Z,58.02
2022-11-28T19:14:16.572Z,57.84
2022-11-28T19:16:45.214Z,58.18
2022-11-28T19:19:17.858Z,57.79
2022-11-28T19:21:46.127Z,58.04
2022-11-28T19:24:15.212Z,58.15
2022-11-28T19:26:43.481Z,58.23
2022-11-28T19:29:12.707Z,58.03
2022-11-28T19:31:42.274Z,58.33
2022-11-28T19:34:17.973Z,57.94
2022-11-28T19:36:51.212Z,58.00
2022-11-28T19:39:25.049Z,58.01
2022-11-28T19:41:54.331Z,58.00
2022-11-28T19:44:24.232Z,57.89
2022-11-28T19:46:53.501Z,57.91
2022-11-28T19:49:23.874Z,58.12
2022-11-28T19:51:54.360Z,58.15
2022-11-28T19:54:22.295Z,58.00
2022-11-28T19:56:51.156Z,58.09
2022-11-28T19:59:19.391Z,58.01
2022-11-28T20:01:49.904Z,58.45
2022-11-28T20:04:19.341Z,58.14
2022-11-28T20:06:47.219Z,58.27
2022-11-28T20:09:15.128Z,58.45
2022-11-28T20:11:45.433Z,58.08
2022-11-28T20:14:19.036Z,58.18
2022-11-28T20:16:48.382Z,57.87
2022-11-28T20:19:17.881Z,57.93
2022-11-28T20:21:46.663Z,58.26
2022-11-28T20:24:16.011Z,58.26
2022-11-28T20:26:45.595Z,58.56
2022-11-28T20:29:16.333Z,58.13
2022-11-28T20:31:46.426Z,58.19
2022-11-28T20:34:18.147Z,57.87
2022-11-28T20:36:50.656Z,57.97
2022-11-28T20:39:20.047Z,58.26
2022-11-28T20:41:47.910Z,58.22
2022-11-28T20:44:15.697Z,57.88
2022-11-28T20:46:46.243Z,57.90
2022-11-28T20:49:17.591Z,58.32
2022-11-28T20:51:45.640Z,57.86
2022-11-28T20:54:14.444Z,58.38
2022-11-28T20:57:19.036Z,58.48
2022-11-28T20:59:32.498Z,58.47
2022-11-28T21:02:00.372Z,58.78
2022-11-28T21:04:28.292Z,58.66
2022-11-28T21:06:56.051Z,58.54
2022-11-28T21:09:24.036Z,58.88
2022-11-28T21:11:59.620Z,58.36
2022-11-28T21:14:29.233Z,58.81
2022-11-28T21:16:58.659Z,58.63
2022-11-28T21:19:26.913Z,58.30
2022-11-28T21:21:54.980Z,58.40
2022-11-28T21:24:22.854Z,58.32
2022-11-28T21:26:53.819Z,58.52
2022-11-28T21:29:24.596Z,58.38
2022-11-28T21:31:53.458Z,58.33
2022-11-28T21:34:22.487Z,58.85
2022-11-28T21:36:50.535Z,58.76
2022-11-28T21:39:20.804Z,58.83
2022-11-28T21:41:48.996Z,58.94
2022-11-28T21:44:16.964Z,58.93
2022-11-28T21:46:46.573Z,58.34
2022-11-28T21:49:14.458Z,58.62
2022-11-28T21:51:42.322Z,58.61
2022-11-28T21:54:13.438Z,58.78
2022-11-28T21:56:41.960Z,58.31
2022-11-28T21:59:09.759Z,58.89
2022-11-28T22:01:37.789Z,58.83
2022-11-28T22:04:06.514Z,58.51
2022-11-28T22:06:34.353Z,58.85
2022-11-28T22:09:09.005Z,58.42
2022-11-28T22:11:39.023Z,58.38
2022-11-28T22:14:07.388Z,58.73
2022-11-28T22:16:35.202Z,58.78
2022-11-28T22:19:04.261Z,58.71
2022-11-28T22:24:21.289Z,58.67
2022-11-28T22:26:50.045Z,58.59
2022-11-28T22:29:19.352Z,58.55
2022-11-28T22:31:47.264Z,58.85
2022-11-28T22:34:15.610Z,58.45
2022-11-28T22:36:43.875Z,58.45
2022-11-28T22:39:11.974Z,58.93
2022-11-28T22:41:39.987Z,58.95
2022-11-28T22:44:10.141Z,58.78
2022-11-28T22:46:38.113Z,58.39
2022-11-28T22:49:07.559Z,58.50
2022-11-28T22:51:35.977Z,59.50
2022-11-28T22:54:04.806Z,59.28
2022-11-28T22:56:34.254Z,59.05
2022-11-28T22:59:05.005Z,58.87
2022-11-28T23:01:34.225Z,58.96
2022-11-28T23:04:02.615Z,58.79
2022-11-28T23:06:33.696Z,58.83
2022-11-28T23:09:05.884Z,58.88
2022-11-28T23:11:37.684Z,58.97
2022-11-28T23:14:06.963Z,59.20
2022-11-28T23:16:39.539Z,58.93
2022-11-28T23:19:13.355Z,58.75
2022-11-28T23:21:44.281Z,58.61
2022-11-28T23:24:19.631Z,58.99
2022-11-28T23:26:48.552Z,58.77
2022-11-28T23:29:17.430Z,58.82
2022-11-28T23:31:47.150Z,58.93
2022-11-28T23:34:16.095Z,59.09
2022-11-28T23:36:46.786Z,58.78
2022-11-28T23:39:20.342Z,59.06
2022-11-28T23:41:49.239Z,59.05
2022-11-28T23:44:19.637Z,58.69
2022-11-28T23:46:48.416Z,58.87
2022-11-28T23:49:16.577Z,58.73
2022-11-28T23:51:44.430Z,58.89
2022-11-28T23:54:12.978Z,58.79
2022-11-28T23:56:41.970Z,58.70
2022-11-28T23:59:12.002Z,58.91
